Time;durP1;ratioP1;P1;durP2;ratioP2;P2;SDS_P1;SDS_P2;PMS_P1;PMS_P2;Temp;Humidity;BMP_temperature;BMP_pressure;BME280_temperature;BME280_humidity;BME280_pressure;Samples;Min_cycle;Max_cycle;Signal;HPM_P1;HPM_P2
2021/04/08 00:08:07;;;;;;;3.65;2.63;;;13.90;56.00;;;;;;20682543;28;20022;-61
2021/04/08 00:18:08;;;;;;;9.25;3.65;;;13.90;56.20;;;;;;20681232;28;20394;-62
2021/04/08 00:28:09;;;;;;;4.57;2.90;;;13.90;56.50;;;;;;20680609;28;20042;-62
2021/04/08 00:38:10;;;;;;;4.95;2.70;;;13.80;56.60;;;;;;20678601;28;20072;-62
2021/04/08 00:48:11;;;;;;;4.18;2.70;;;13.60;57.00;;;;;;20679208;28;20026;-62
2021/04/08 00:58:14;;;;;;;4.32;2.50;;;13.60;57.10;;;;;;20678498;28;20142;-63
2021/04/08 03:01:28;;;;;;;5.25;2.63;;;13.20;58.70;;;;;;20713471;28;20112;-66
2021/04/08 03:11:33;;;;;;;4.43;2.90;;;13.20;58.60;;;;;;20747849;28;20096;-63
2021/04/08 03:21:35;;;;;;;3.63;2.35;;;13.20;58.70;;;;;;20749214;28;20041;-62
2021/04/08 03:31:48;;;;;;;4.03;2.50;;;13.10;58.80;;;;;;20747884;28;20021;-63
2021/04/08 03:41:49;;;;;;;3.72;2.10;;;13.10;58.90;;;;;;20748554;28;20038;-64
2021/04/08 03:51:51;;;;;;;3.40;2.47;;;13.10;58.60;;;;;;20748264;28;20032;-63
2021/04/08 04:01:53;;;;;;;3.00;2.17;;;12.90;58.80;;;;;;20747034;28;20056;-64
2021/04/08 04:11:55;;;;;;;3.60;2.28;;;12.90;59.00;;;;;;20747570;28;20025;-64
2021/04/08 04:21:56;;;;;;;3.63;2.40;;;12.80;59.00;;;;;;20748161;28;20033;-64
2021/04/08 04:31:57;;;;;;;4.68;2.80;;;12.70;59.20;;;;;;20761852;28;20072;-63
2021/04/08 04:41:58;;;;;;;3.55;2.50;;;12.80;59.10;;;;;;20760809;28;20034;-63
2021/04/08 04:51:59;;;;;;;4.57;2.83;;;12.70;59.50;;;;;;20759586;28;20152;-63
2021/04/08 05:02:00;;;;;;;4.55;2.42;;;12.70;59.50;;;;;;20757498;28;20060;-63
2021/04/08 05:12:00;;;;;;;5.28;2.35;;;12.60;59.70;;;;;;20758141;28;20021;-63
2021/04/08 05:22:01;;;;;;;4.65;2.60;;;12.60;59.80;;;;;;20757682;28;20040;-64
2021/04/08 05:32:02;;;;;;;4.05;2.95;;;12.70;59.50;;;;;;20756783;28;20018;-63
2021/04/08 05:42:03;;;;;;;6.72;3.10;;;12.60;59.70;;;;;;20754569;28;20042;-63
2021/04/08 05:52:05;;;;;;;3.60;2.42;;;12.60;59.60;;;;;;20753959;28;20073;-64
2021/04/08 06:02:05;;;;;;;7.25;3.10;;;12.60;59.70;;;;;;20753650;28;20077;-62
2021/04/08 06:12:06;;;;;;;5.93;2.80;;;12.60;59.80;;;;;;20753598;28;20117;-61
2021/04/08 06:22:07;;;;;;;9.02;2.85;;;12.60;59.80;;;;;;20752618;28;20046;-66
2021/04/08 06:32:08;;;;;;;4.03;2.78;;;12.50;60.00;;;;;;20734388;28;20112;-63
2021/04/08 06:42:09;;;;;;;6.00;3.30;;;12.50;59.80;;;;;;20751286;28;20030;-64
2021/04/08 06:52:12;;;;;;;5.65;2.85;;;12.50;59.80;;;;;;20733268;28;20385;-65
2021/04/08 07:02:16;;;;;;;8.52;3.40;;;12.60;59.70;;;;;;20750006;28;20053;-64
2021/04/08 07:12:17;;;;;;;6.90;3.00;;;12.70;59.50;;;;;;20749711;28;20022;-63
2021/04/08 07:22:18;;;;;;;6.55;3.63;;;12.70;59.40;;;;;;20731839;28;20041;-62
2021/04/08 07:32:27;;;;;;;7.85;3.15;;;12.70;59.70;;;;;;20748606;28;20245;-62
2021/04/08 07:42:30;;;;;;;7.28;4.03;;;12.70;59.30;;;;;;20748299;28;20124;-64
2021/04/08 07:52:43;;;;;;;9.82;3.22;;;12.80;59.10;;;;;;20747726;28;20024;-63
2021/04/08 08:02:44;;;;;;;9.77;3.83;;;12.90;59.20;;;;;;20758155;28;20053;-64
2021/04/08 08:12:45;;;;;;;10.82;5.15;;;12.90;59.20;;;;;;20765899;28;20026;-64
2021/04/08 08:22:47;;;;;;;7.50;3.40;;;12.90;59.20;;;;;;20762682;28;20049;-64
2021/04/08 08:33:07;;;;;;;9.55;4.78;;;13.10;58.90;;;;;;20763376;28;20111;-65
2021/04/08 08:43:08;;;;;;;6.78;3.47;;;13.10;58.90;;;;;;20761011;28;20030;-62
2021/04/08 08:53:11;;;;;;;7.93;3.10;;;13.10;58.80;;;;;;20760386;28;20064;-62
2021/04/08 09:03:12;;;;;;;13.77;4.60;;;13.10;58.80;;;;;;20758555;28;20433;-63
2021/04/08 09:13:13;;;;;;;7.32;3.50;;;13.20;58.60;;;;;;20756796;28;20068;-64
2021/04/08 09:23:18;;;;;;;3.67;2.17;;;13.30;58.40;;;;;;20756228;28;20038;-56
2021/04/08 09:33:20;;;;;;;;;;;14.70;54.20;;;;;;20756584;28;20041;-64
2021/04/08 09:43:24;;;;;;;6.93;2.65;;;15.50;51.40;;;;;;20755589;28;19957;-57
2021/04/08 09:53:30;;;;;;;10.68;3.25;;;16.00;50.90;;;;;;20754315;28;20418;-57
2021/04/08 10:03:32;;;;;;;5.78;2.55;;;16.30;50.20;;;;;;20753328;28;20038;-56
2021/04/08 10:13:35;;;;;;;7.95;3.08;;;16.70;49.00;;;;;;20752336;28;20022;-57
2021/04/08 10:23:47;;;;;;;5.18;2.60;;;16.70;48.90;;;;;;20752395;28;20030;-56
2021/04/08 10:33:54;;;;;;;6.88;3.13;;;16.80;48.60;;;;;;20751975;28;20457;-60
2021/04/08 10:43:55;;;;;;;8.25;3.50;;;17.20;47.70;;;;;;20750611;28;20045;-59
2021/04/08 10:53:56;;;;;;;9.57;3.83;;;17.40;47.40;;;;;;20748528;28;20038;-62
2021/04/08 11:04:06;;;;;;;7.07;3.75;;;17.40;47.60;;;;;;20749788;28;20038;-56
2021/04/08 11:14:22;;;;;;;6.75;3.38;;;17.60;46.80;;;;;;20749092;28;20029;-57
2021/04/08 11:24:24;;;;;;;8.05;3.70;;;17.70;46.70;;;;;;20748601;28;20081;-57
2021/04/08 11:34:24;;;;;;;20.35;5.18;;;17.80;46.30;;;;;;20747771;28;20026;-60
2021/04/08 11:44:25;;;;;;;9.57;4.90;;;17.90;46.50;;;;;;20749063;28;20046;-61
2021/04/08 11:54:26;;;;;;;8.20;5.22;;;17.40;47.90;;;;;;20747486;28;20049;-59
2021/04/08 12:04:30;;;;;;;12.63;6.30;;;17.30;48.30;;;;;;20730382;28;20437;-60
2021/04/08 12:14:31;;;;;;;14.27;5.85;;;17.30;48.60;;;;;;20747494;28;20026;-61
2021/04/08 12:24:32;;;;;;;10.40;5.63;;;17.40;48.40;;;;;;20744847;28;20045;-61
2021/04/08 12:34:33;;;;;;;12.57;6.72;;;17.40;48.40;;;;;;20746553;28;20033;-61
2021/04/08 12:44:33;;;;;;;9.68;5.75;;;17.60;48.10;;;;;;20749313;28;20038;-61
2021/04/08 12:54:35;;;;;;;10.02;5.40;;;17.60;48.30;;;;;;20759988;28;20044;-60
2021/04/08 13:04:36;;;;;;;14.07;6.95;;;17.70;48.20;;;;;;20759265;28;20046;-60
2021/04/08 13:14:36;;;;;;;13.02;5.85;;;17.90;47.80;;;;;;20758500;28;20063;-60
2021/04/08 13:24:37;;;;;;;11.23;6.20;;;17.90;48.40;;;;;;20757729;28;20041;-59
2021/04/08 13:34:38;;;;;;;11.57;6.55;;;18.10;47.90;;;;;;20756636;28;20022;-60
2021/04/08 13:44:39;;;;;;;14.15;6.63;;;18.20;47.50;;;;;;20755682;28;20117;-63
2021/04/08 13:54:40;;;;;;;13.10;6.63;;;18.40;47.10;;;;;;20754879;28;20070;-60
2021/04/08 14:04:40;;;;;;;9.63;6.10;;;18.20;47.60;;;;;;20754222;28;20397;-60
2021/04/08 14:14:41;;;;;;;13.45;6.53;;;18.30;47.60;;;;;;20753708;28;20030;-59
2021/04/08 14:24:42;;;;;;;11.20;7.55;;;18.40;47.40;;;;;;20752825;28;20045;-59
2021/04/08 14:34:43;;;;;;;12.02;7.05;;;18.50;47.10;;;;;;20751740;28;20477;-60
2021/04/08 14:44:43;;;;;;;12.27;6.80;;;18.60;47.00;;;;;;20750970;28;20029;-59
2021/04/08 14:54:44;;;;;;;14.70;7.47;;;18.70;46.80;;;;;;20749843;28;20050;-60
2021/04/08 15:04:45;;;;;;;14.77;8.07;;;18.80;46.60;;;;;;20749912;28;20034;-61
2021/04/08 15:14:45;;;;;;;14.60;7.38;;;18.90;46.60;;;;;;20750882;28;20034;-62
2021/04/08 15:24:46;;;;;;;13.05;8.27;;;19.00;46.50;;;;;;20746986;28;20053;-61
2021/04/08 15:34:47;;;;;;;13.77;7.13;;;19.10;46.60;;;;;;20748510;28;20030;-59
2021/04/08 15:44:48;;;;;;;12.43;7.13;;;19.30;46.00;;;;;;20748734;28;20038;-60
2021/04/08 15:54:49;;;;;;;15.85;6.93;;;19.40;45.70;;;;;;20746497;28;20057;-61
2021/04/08 16:04:49;;;;;;;11.25;6.22;;;19.50;45.30;;;;;;20746884;28;20042;-61
2021/04/08 16:14:50;;;;;;;14.35;6.15;;;19.60;45.10;;;;;;20747144;28;20037;-61
2021/04/08 16:24:52;;;;;;;14.35;5.80;;;19.40;45.60;;;;;;20757588;28;20045;-60
2021/04/08 16:34:52;;;;;;;10.82;6.10;;;19.40;46.10;;;;;;20761064;28;20355;-60
2021/04/08 16:44:53;;;;;;;12.07;5.88;;;19.40;45.90;;;;;;20760113;28;20037;-60
2021/04/08 16:54:55;;;;;;;15.02;6.43;;;19.30;46.10;;;;;;20745883;28;20047;-60
2021/04/08 17:04:55;;;;;;;6.47;3.80;;;19.20;46.40;;;;;;20677195;28;20038;-64
2021/04/08 17:14:56;;;;;;;11.60;5.40;;;19.20;46.10;;;;;;20677230;28;20537;-58
2021/04/08 17:24:57;;;;;;;10.70;5.65;;;19.20;46.50;;;;;;20690111;28;20514;-58
2021/04/08 17:34:57;;;;;;;10.05;5.38;;;19.10;46.90;;;;;;20674474;28;20520;-60
2021/04/08 17:44:58;;;;;;;9.52;4.93;;;19.10;47.00;;;;;;20674530;28;20502;-60
2021/04/08 17:55:00;;;;;;;11.45;5.03;;;19.10;47.20;;;;;;20685802;28;20493;-61
2021/04/08 18:05:01;;;;;;;8.15;4.65;;;19.00;47.60;;;;;;20753471;28;20037;-56
2021/04/08 18:15:02;;;;;;;10.98;4.93;;;19.00;47.70;;;;;;20752131;28;20478;-60
2021/04/08 18:25:04;;;;;;;12.52;5.63;;;18.90;48.10;;;;;;20754300;28;20472;-59
2021/04/08 18:35:06;;;;;;;12.57;4.88;;;18.70;48.40;;;;;;20750520;28;20030;-62
2021/04/08 18:45:08;;;;;;;14.93;6.90;;;18.60;48.70;;;;;;20751133;28;20088;-60
2021/04/08 18:55:09;;;;;;;16.45;7.80;;;18.50;48.90;;;;;;20750243;28;20049;-61
2021/04/08 19:05:10;;;;;;;13.88;6.32;;;18.40;48.90;;;;;;20750871;28;20069;-61
2021/04/08 19:15:12;;;;;;;15.48;6.95;;;18.40;48.90;;;;;;20749660;28;20053;-59
2021/04/08 19:25:15;;;;;;;12.90;7.30;;;18.30;49.00;;;;;;20731431;28;20041;-60
2021/04/08 19:35:16;;;;;;;18.45;5.80;;;18.20;49.20;;;;;;20748698;28;20405;-60
2021/04/08 19:45:16;;;;;;;10.60;6.03;;;18.10;49.70;;;;;;20748620;28;20108;-60
2021/04/08 19:55:18;;;;;;;18.60;9.15;;;18.10;49.90;;;;;;20752151;28;20042;-62
2021/04/08 20:05:19;;;;;;;9.85;5.20;;;18.10;49.80;;;;;;20763516;28;20073;-62
2021/04/08 20:15:20;;;;;;;15.20;6.05;;;18.00;50.00;;;;;;20762840;28;20030;-61
2021/04/08 20:25:21;;;;;;;21.17;7.53;;;17.90;50.20;;;;;;20762134;28;20089;-61
2021/04/08 20:35:22;;;;;;;14.68;6.03;;;17.70;50.50;;;;;;20761178;28;20059;-60
2021/04/08 20:45:23;;;;;;;11.88;5.80;;;17.70;50.70;;;;;;20760829;28;20377;-61
2021/04/08 20:55:24;;;;;;;17.27;6.72;;;17.70;50.90;;;;;;20760206;28;20068;-61
2021/04/08 21:05:27;;;;;;;9.43;3.75;;;17.70;50.90;;;;;;20759158;28;20030;-61
2021/04/08 21:15:28;;;;;;;4.37;2.83;;;17.60;49.80;;;;;;20759474;28;20036;-61
2021/04/08 21:25:28;;;;;;;9.50;3.33;;;17.30;49.60;;;;;;20759493;28;20124;-62
2021/04/08 21:35:29;;;;;;;6.72;3.15;;;17.20;49.60;;;;;;20757650;28;20029;-61
2021/04/08 21:45:31;;;;;;;6.55;2.90;;;17.00;49.80;;;;;;20755504;28;20454;-61
2021/04/08 21:55:32;;;;;;;6.35;2.97;;;16.90;50.00;;;;;;20755445;28;20042;-61
2021/04/08 22:05:33;;;;;;;7.43;3.15;;;16.80;50.40;;;;;;20755164;28;20034;-60
2021/04/08 22:15:35;;;;;;;6.88;2.80;;;16.70;50.60;;;;;;20753750;28;20050;-61
2021/04/08 22:25:42;;;;;;;5.70;2.72;;;16.50;50.90;;;;;;20754194;28;20125;-61
2021/04/08 22:35:43;;;;;;;6.70;2.72;;;16.40;51.10;;;;;;20752576;28;20442;-61
2021/04/08 22:45:43;;;;;;;6.15;2.83;;;16.40;51.20;;;;;;20751998;28;20061;-61
2021/04/08 22:55:44;;;;;;;5.53;2.95;;;16.20;51.30;;;;;;20751617;28;20053;-63
2021/04/08 23:05:45;;;;;;;10.48;3.40;;;16.20;51.50;;;;;;20732910;28;20121;-64
2021/04/08 23:15:46;;;;;;;6.35;2.70;;;16.00;52.00;;;;;;20750347;28;20053;-61
2021/04/08 23:25:47;;;;;;;6.75;3.05;;;15.80;52.30;;;;;;20750548;28;20049;-60
2021/04/08 23:35:48;;;;;;;9.43;2.65;;;15.70;52.60;;;;;;20748123;28;20100;-60
2021/04/08 23:45:49;;;;;;;7.13;3.05;;;15.70;52.50;;;;;;20748536;28;20064;-61
2021/04/08 23:55:50;;;;;;;6.30;2.67;;;15.60;52.70;;;;;;20747857;28;20080;-61
